createdAt,value
2017-11-07T00:01:00.695Z,99.17
2017-11-07T00:03:28.346Z,143.10
2017-11-07T00:05:57.085Z,89.83
2017-11-07T00:08:24.750Z,72.57
2017-11-07T00:10:52.431Z,53.13
2017-11-07T00:13:20.077Z,79.07
2017-11-07T00:15:47.755Z,101.70
2017-11-07T00:18:15.413Z,103.53
2017-11-07T00:20:43.113Z,112.87
2017-11-07T00:23:10.759Z,120.53
2017-11-07T00:25:38.478Z,82.27
2017-11-07T00:28:06.127Z,78.47
2017-11-07T00:30:33.806Z,94.20
2017-11-07T00:33:01.458Z,62.97
2017-11-07T00:35:29.159Z,89.37
2017-11-07T00:37:56.845Z,65.80
2017-11-07T00:40:24.490Z,55.73
2017-11-07T00:42:52.192Z,92.57
2017-11-07T00:45:19.868Z,109.47
2017-11-07T00:47:47.550Z,37.70
2017-11-07T00:50:15.203Z,50.93
2017-11-07T00:52:43.775Z,59.50
2017-11-07T00:55:11.419Z,97.17
2017-11-07T00:57:39.104Z,91.80
2017-11-07T01:00:06.749Z,61.30
2017-11-07T01:02:34.446Z,62.63
2017-11-07T01:05:02.104Z,95.30
2017-11-07T01:07:29.795Z,103.67
2017-11-07T01:09:57.448Z,67.13
2017-11-07T01:12:25.128Z,76.87
2017-11-07T01:14:52.776Z,87.20
2017-11-07T01:17:20.481Z,107.97
2017-11-07T01:19:48.129Z,125.10
2017-11-07T01:22:15.775Z,76.20
2017-11-07T01:24:43.472Z,70.00
2017-11-07T01:27:11.108Z,61.03
2017-11-07T01:29:42.026Z,118.97
2017-11-07T01:32:09.670Z,65.27
2017-11-07T01:34:37.354Z,98.87
2017-11-07T01:37:05.039Z,106.50
2017-11-07T01:39:32.723Z,137.73
2017-11-07T01:42:00.381Z,115.13
2017-11-07T01:44:28.058Z,53.93
2017-11-07T01:46:55.700Z,79.93
2017-11-07T01:49:23.380Z,79.90
2017-11-07T01:51:51.030Z,126.87
2017-11-07T01:54:18.716Z,85.63
2017-11-07T01:56:46.373Z,128.53
2017-11-07T01:59:14.095Z,102.73
2017-11-07T02:01:41.775Z,105.03
2017-11-07T02:04:09.424Z,126.43
2017-11-07T02:06:37.099Z,108.80
2017-11-07T02:09:04.810Z,126.80
2017-11-07T02:11:32.499Z,102.90
2017-11-07T02:14:00.128Z,62.77
2017-11-07T02:16:27.816Z,106.87
2017-11-07T02:18:55.465Z,93.77
2017-11-07T02:21:23.174Z,90.93
2017-11-07T02:23:50.814Z,64.60
2017-11-07T02:26:18.502Z,100.90
2017-11-07T02:28:46.174Z,119.40
2017-11-07T02:31:13.858Z,103.67
2017-11-07T02:33:41.507Z,107.37
2017-11-07T02:36:09.210Z,165.37
2017-11-07T02:38:36.925Z,175.63
2017-11-07T02:41:04.606Z,121.90
2017-11-07T02:43:32.267Z,114.67
2017-11-07T02:45:59.949Z,131.17
2017-11-07T02:48:27.587Z,98.63
2017-11-07T02:50:55.275Z,70.27
2017-11-07T02:53:22.946Z,94.53
2017-11-07T02:55:50.644Z,118.10
2017-11-07T02:58:18.289Z,84.33
2017-11-07T03:00:45.966Z,49.77
2017-11-07T03:03:13.618Z,83.27
2017-11-07T03:05:41.320Z,167.60
2017-11-07T03:08:08.976Z,103.77
2017-11-07T03:10:36.620Z,86.00
2017-11-07T03:13:04.310Z,100.37
2017-11-07T03:15:31.960Z,88.37
2017-11-07T03:17:59.643Z,66.97
2017-11-07T03:20:27.321Z,87.73
2017-11-07T03:22:55.036Z,100.77
2017-11-07T03:25:22.677Z,134.57
2017-11-07T03:27:50.353Z,82.93
2017-11-07T03:30:17.999Z,65.63
2017-11-07T03:32:45.693Z,102.73
2017-11-07T03:35:13.351Z,105.03
2017-11-07T03:37:41.070Z,64.73
2017-11-07T03:40:08.723Z,81.20
2017-11-07T03:42:36.391Z,112.70
2017-11-07T03:45:04.047Z,91.53
2017-11-07T03:47:31.700Z,99.30
2017-11-07T03:49:59.501Z,110.90
2017-11-07T03:52:27.142Z,94.00
2017-11-07T03:54:54.822Z,82.70
2017-11-07T03:57:22.470Z,74.37
2017-11-07T03:59:50.146Z,96.77
2017-11-07T04:02:17.774Z,84.90
2017-11-07T04:04:45.458Z,104.93
2017-11-07T04:07:13.123Z,58.40
2017-11-07T04:09:40.805Z,53.30
2017-11-07T04:12:08.383Z,80.67
2017-11-07T04:14:36.062Z,81.67
2017-11-07T04:17:03.716Z,88.83
2017-11-07T04:19:31.411Z,95.53
2017-11-07T04:21:59.049Z,55.37
2017-11-07T04:24:26.741Z,93.70
2017-11-07T04:26:54.387Z,82.60
2017-11-07T04:29:22.029Z,81.23
2017-11-07T04:31:49.729Z,75.17
2017-11-07T04:34:17.393Z,92.40
2017-11-07T04:36:45.106Z,42.67
2017-11-07T04:39:12.745Z,80.87
2017-11-07T04:41:40.428Z,55.47
2017-11-07T04:44:08.081Z,89.73
2017-11-07T04:46:35.773Z,127.23
2017-11-07T04:49:03.430Z,88.33
2017-11-07T04:51:31.118Z,125.63
2017-11-07T04:53:58.748Z,92.40
2017-11-07T04:56:26.445Z,78.23
2017-11-07T04:58:54.083Z,52.57
2017-11-07T05:01:21.734Z,87.93
2017-11-07T05:03:49.453Z,41.67
2017-11-07T05:06:17.110Z,124.23
2017-11-07T05:08:44.790Z,54.50
2017-11-07T05:11:12.433Z,110.87
2017-11-07T05:13:40.110Z,111.87
2017-11-07T05:16:07.762Z,110.83
2017-11-07T05:18:35.470Z,189.37
2017-11-07T05:21:03.127Z,191.17
2017-11-07T05:23:30.807Z,150.63
2017-11-07T05:25:58.489Z,157.43
2017-11-07T05:28:26.185Z,178.97
2017-11-07T05:30:53.834Z,144.17
2017-11-07T05:33:21.524Z,124.67
2017-11-07T05:35:49.180Z,126.40
2017-11-07T05:38:16.903Z,145.23
2017-11-07T05:40:44.547Z,133.13
2017-11-07T05:43:12.254Z,78.53
2017-11-07T05:45:39.897Z,56.53
2017-11-07T05:48:07.583Z,119.07
2017-11-07T05:50:35.242Z,86.63
2017-11-07T05:53:02.873Z,73.60
2017-11-07T05:55:30.530Z,153.37
2017-11-07T05:57:58.229Z,107.97
2017-11-07T06:00:25.890Z,79.87
2017-11-07T06:02:53.591Z,67.50
2017-11-07T06:05:21.231Z,83.77
2017-11-07T06:07:49.918Z,67.40
2017-11-07T06:10:17.555Z,75.00
2017-11-07T06:12:45.238Z,80.60
2017-11-07T06:15:12.966Z,59.10
2017-11-07T06:17:40.607Z,95.60
2017-11-07T06:20:08.284Z,82.00
2017-11-07T06:22:35.948Z,40.50
2017-11-07T06:25:03.657Z,100.87
2017-11-07T06:27:31.324Z,100.87
2017-11-07T06:29:59.029Z,70.07
2017-11-07T06:32:26.671Z,68.17
2017-11-07T06:34:54.364Z,129.07
2017-11-07T06:37:22.064Z,145.33
2017-11-07T06:39:49.770Z,102.73
2017-11-07T06:42:17.413Z,105.27
2017-11-07T06:44:45.122Z,121.73
2017-11-07T06:47:12.766Z,91.57
2017-11-07T06:49:40.496Z,86.83
2017-11-07T06:52:08.307Z,67.60
2017-11-07T06:54:35.976Z,90.40
2017-11-07T06:57:03.677Z,109.27
2017-11-07T06:59:31.322Z,134.63
2017-11-07T07:01:59.032Z,104.53
2017-11-07T07:04:26.677Z,147.90
2017-11-07T07:06:54.357Z,119.90
2017-11-07T07:09:22.011Z,120.20
2017-11-07T07:11:49.720Z,90.57
2017-11-07T07:14:17.376Z,134.17
2017-11-07T07:16:45.050Z,97.03
2017-11-07T07:19:12.757Z,91.27
2017-11-07T07:21:40.460Z,99.17
2017-11-07T07:24:08.136Z,121.07
2017-11-07T07:26:35.843Z,141.50
2017-11-07T07:29:03.504Z,120.23
2017-11-07T07:31:31.199Z,89.93
2017-11-07T07:33:58.838Z,54.20
2017-11-07T07:36:26.562Z,78.93
2017-11-07T07:38:54.243Z,73.00
2017-11-07T07:41:21.878Z,98.30
2017-11-07T07:43:49.592Z,132.70
2017-11-07T07:46:17.241Z,101.43
2017-11-07T07:48:44.918Z,108.87
2017-11-07T07:51:12.626Z,48.63
2017-11-07T07:53:40.477Z,91.83
2017-11-07T07:56:08.130Z,129.97
2017-11-07T07:58:35.805Z,69.40
2017-11-07T08:01:03.444Z,91.27
2017-11-07T08:03:31.181Z,34.13
2017-11-07T08:05:58.975Z,94.53
2017-11-07T08:08:27.803Z,55.37
2017-11-07T08:10:55.488Z,40.83
2017-11-07T08:13:23.220Z,89.37
2017-11-07T08:15:50.935Z,70.57
2017-11-07T08:18:18.637Z,64.80
2017-11-07T08:20:46.341Z,130.43
2017-11-07T08:23:14.050Z,27.57
2017-11-07T08:25:41.699Z,70.00
2017-11-07T08:28:09.354Z,24.27
2017-11-07T08:30:37.031Z,19.10
2017-11-07T08:33:04.681Z,55.03
2017-11-07T08:35:32.362Z,67.73
2017-11-07T08:38:00.035Z,43.67
2017-11-07T08:40:27.717Z,91.87
2017-11-07T08:42:55.357Z,65.50
2017-11-07T08:45:23.039Z,40.80
2017-11-07T08:47:50.726Z,83.33
2017-11-07T08:50:18.407Z,88.33
2017-11-07T08:52:46.036Z,58.40
2017-11-07T08:55:13.721Z,43.93
2017-11-07T08:57:41.366Z,91.23
2017-11-07T09:00:09.053Z,110.10
2017-11-07T09:02:36.691Z,57.40
2017-11-07T09:05:04.397Z,162.80
2017-11-07T09:07:32.049Z,40.13
2017-11-07T09:09:59.729Z,37.60
2017-11-07T09:12:27.393Z,125.67
2017-11-07T09:14:55.063Z,39.77
2017-11-07T09:17:22.720Z,76.20
2017-11-07T09:19:50.418Z,84.00
2017-11-07T09:22:18.059Z,89.97
2017-11-07T09:24:45.791Z,99.13
2017-11-07T09:27:13.438Z,88.27
2017-11-07T09:29:41.176Z,75.30
2017-11-07T09:32:08.815Z,127.37
2017-11-07T09:34:36.506Z,144.00
2017-11-07T09:37:04.182Z,47.53
2017-11-07T09:39:31.852Z,26.53
2017-11-07T09:41:59.536Z,107.90
2017-11-07T09:44:27.179Z,80.00
2017-11-07T09:46:54.882Z,28.53
2017-11-07T09:49:22.537Z,43.97
2017-11-07T09:51:50.278Z,67.00
2017-11-07T09:54:18.011Z,51.30
2017-11-07T09:56:45.729Z,62.57
2017-11-07T09:59:13.478Z,81.77
2017-11-07T10:01:41.209Z,61.83
2017-11-07T10:04:08.869Z,50.63
2017-11-07T10:06:36.581Z,108.80
2017-11-07T10:09:05.223Z,87.80
2017-11-07T10:11:32.920Z,93.43
2017-11-07T10:14:00.587Z,73.57
2017-11-07T10:16:28.278Z,62.57
2017-11-07T10:18:55.960Z,82.97
2017-11-07T10:21:23.611Z,56.93
2017-11-07T10:23:51.287Z,50.03
2017-11-07T10:26:18.918Z,54.67
2017-11-07T10:28:46.606Z,28.53
2017-11-07T10:31:14.252Z,34.17
2017-11-07T10:33:41.945Z,31.30
2017-11-07T10:36:09.611Z,37.43
2017-11-07T10:38:37.337Z,28.40
2017-11-07T10:41:04.982Z,34.30
2017-11-07T10:43:32.623Z,52.33
2017-11-07T10:46:00.334Z,31.83
2017-11-07T10:48:28.080Z,37.67
2017-11-07T10:50:55.749Z,28.30
2017-11-07T10:53:23.472Z,19.63
2017-11-07T10:55:51.154Z,16.23
2017-11-07T10:58:18.802Z,33.10
2017-11-07T11:00:46.504Z,29.30
2017-11-07T11:03:14.155Z,19.17
2017-11-07T11:05:41.920Z,28.50
2017-11-07T11:08:09.572Z,27.17
2017-11-07T11:10:37.268Z,25.07
2017-11-07T11:13:04.948Z,22.60
2017-11-07T11:15:32.691Z,30.63
2017-11-07T11:18:00.355Z,27.77
2017-11-07T11:20:28.029Z,26.37
2017-11-07T11:22:55.678Z,17.97
2017-11-07T11:25:23.384Z,35.73
2017-11-07T11:27:51.028Z,24.20
2017-11-07T11:30:18.710Z,19.37
2017-11-07T11:32:46.359Z,32.80
2017-11-07T11:35:14.067Z,25.13
2017-11-07T11:37:41.748Z,22.37
2017-11-07T11:40:09.424Z,18.83
2017-11-07T11:42:37.065Z,22.00
2017-11-07T11:45:04.779Z,23.93
2017-11-07T11:47:32.437Z,28.47
2017-11-07T11:50:01.082Z,20.83
2017-11-07T11:52:28.732Z,21.67
2017-11-07T11:54:56.403Z,15.03
2017-11-07T11:57:24.104Z,14.40
2017-11-07T11:59:51.708Z,20.60
2017-11-07T12:02:19.402Z,14.90
2017-11-07T12:04:47.046Z,21.20
2017-11-07T12:07:14.743Z,23.80
2017-11-07T12:09:43.520Z,21.00
2017-11-07T12:12:11.227Z,17.63
2017-11-07T12:14:38.881Z,18.87
2017-11-07T12:17:06.569Z,17.10
2017-11-07T12:19:34.240Z,18.93
2017-11-07T12:22:01.945Z,19.33
2017-11-07T12:24:29.593Z,17.87
2017-11-07T12:26:57.310Z,20.33
2017-11-07T12:29:24.962Z,21.60
2017-11-07T12:31:52.678Z,22.13
2017-11-07T12:34:20.376Z,17.33
2017-11-07T12:36:48.042Z,19.57
2017-11-07T12:39:15.782Z,18.30
2017-11-07T12:41:43.437Z,18.10
2017-11-07T12:44:11.126Z,19.13
2017-11-07T12:46:38.769Z,16.50
2017-11-07T12:49:06.452Z,18.40
2017-11-07T12:51:45.805Z,15.17
2017-11-07T12:54:13.496Z,13.10
2017-11-07T12:56:41.137Z,17.47
2017-11-07T12:59:08.808Z,20.07
2017-11-07T13:01:36.498Z,15.13
2017-11-07T13:04:04.213Z,17.43
2017-11-07T13:06:31.876Z,15.23
2017-11-07T13:08:59.519Z,18.43
2017-11-07T13:11:27.208Z,16.60
2017-11-07T13:13:54.874Z,16.07
2017-11-07T13:16:22.583Z,15.57
2017-11-07T13:18:50.217Z,18.90
2017-11-07T13:21:17.899Z,14.30
2017-11-07T13:23:45.542Z,15.20
2017-11-07T13:26:13.230Z,19.20
2017-11-07T13:28:40.894Z,15.97
2017-11-07T13:31:08.583Z,14.47
2017-11-07T13:33:36.224Z,12.00
2017-11-07T13:36:03.937Z,12.77
2017-11-07T13:38:31.626Z,13.27
2017-11-07T13:40:59.308Z,19.47
2017-11-07T13:43:26.970Z,15.13
2017-11-07T13:45:54.670Z,17.70
2017-11-07T13:48:22.312Z,13.13
2017-11-07T13:50:49.952Z,16.53
2017-11-07T13:53:17.654Z,16.90
2017-11-07T13:55:45.303Z,20.33
2017-11-07T13:58:12.994Z,21.00
2017-11-07T14:00:40.656Z,16.37
2017-11-07T14:03:08.349Z,14.20
2017-11-07T14:05:35.993Z,16.43
2017-11-07T14:08:03.690Z,15.53
2017-11-07T14:10:31.898Z,13.30
2017-11-07T14:12:59.587Z,15.97
2017-11-07T14:15:27.267Z,14.20
2017-11-07T14:17:55.048Z,13.77
2017-11-07T14:20:22.685Z,18.77
2017-11-07T14:22:50.382Z,14.90
2017-11-07T14:25:18.045Z,16.30
2017-11-07T14:27:45.779Z,16.40
2017-11-07T14:30:13.424Z,16.33
2017-11-07T14:32:41.115Z,20.70
2017-11-07T14:35:08.791Z,18.50
2017-11-07T14:37:37.516Z,17.63
2017-11-07T14:40:05.157Z,17.33
2017-11-07T14:42:32.749Z,23.97
2017-11-07T14:45:00.445Z,18.97
2017-11-07T14:47:28.032Z,20.40
2017-11-07T14:49:55.719Z,17.97
2017-11-07T14:52:23.391Z,27.20
2017-11-07T14:54:51.086Z,18.17
2017-11-07T14:57:18.755Z,22.13
2017-11-07T14:59:46.455Z,17.70
2017-11-07T15:02:14.099Z,22.70
2017-11-07T15:04:41.768Z,18.37
2017-11-07T15:07:09.442Z,17.83
2017-11-07T15:09:37.142Z,16.40
2017-11-07T15:12:04.787Z,24.57
2017-11-07T15:14:32.488Z,28.27
2017-11-07T15:17:00.151Z,26.27
2017-11-07T15:19:27.820Z,34.23
2017-11-07T15:21:55.539Z,25.87
2017-11-07T15:24:23.217Z,54.67
2017-11-07T15:26:50.896Z,24.70
2017-11-07T15:29:18.566Z,40.67
2017-11-07T15:31:46.255Z,26.10
2017-11-07T15:34:13.902Z,76.67
2017-11-07T15:36:41.621Z,179.47
2017-11-07T15:39:09.336Z,228.10
2017-11-07T15:41:37.040Z,202.03
2017-11-07T15:44:04.712Z,204.10
2017-11-07T15:46:32.422Z,356.43
2017-11-07T15:49:00.118Z,352.57
2017-11-07T15:51:27.798Z,173.30
2017-11-07T15:53:55.496Z,161.27
2017-11-07T15:56:23.167Z,261.77
2017-11-07T15:58:51.908Z,332.87
2017-11-07T16:01:19.564Z,164.57
2017-11-07T16:03:47.277Z,305.43
2017-11-07T16:06:14.878Z,183.57
2017-11-07T16:08:42.579Z,278.73
2017-11-07T16:11:10.263Z,272.87
2017-11-07T16:13:37.953Z,136.60
2017-11-07T16:16:05.651Z,192.27
2017-11-07T16:18:33.377Z,146.03
2017-11-07T16:21:01.037Z,217.00
2017-11-07T16:23:28.757Z,131.27
2017-11-07T16:25:56.439Z,225.93
2017-11-07T16:28:24.133Z,134.73
2017-11-07T16:30:51.827Z,217.63
2017-11-07T16:33:19.524Z,138.57
2017-11-07T16:35:47.229Z,146.97
2017-11-07T16:38:14.964Z,197.60
2017-11-07T16:40:42.668Z,111.50
2017-11-07T16:43:10.344Z,63.17
2017-11-07T16:45:38.087Z,105.20
2017-11-07T16:48:05.787Z,129.07
2017-11-07T16:50:33.485Z,66.27
2017-11-07T16:53:01.094Z,113.13
2017-11-07T16:55:28.802Z,86.87
2017-11-07T16:57:56.484Z,150.60
2017-11-07T17:00:24.204Z,87.30
2017-11-07T17:02:51.875Z,80.53
2017-11-07T17:05:19.555Z,124.20
2017-11-07T17:07:47.267Z,111.73
2017-11-07T17:10:14.942Z,194.90
2017-11-07T17:12:42.634Z,139.93
2017-11-07T17:15:10.289Z,148.80
2017-11-07T17:17:38.008Z,157.47
2017-11-07T17:20:05.665Z,136.83
2017-11-07T17:22:33.377Z,143.00
2017-11-07T17:25:01.044Z,80.63
2017-11-07T17:27:28.730Z,77.00
2017-11-07T17:29:56.392Z,101.43
2017-11-07T17:32:24.113Z,65.47
2017-11-07T17:34:51.775Z,38.57
2017-11-07T17:37:19.470Z,41.33
2017-11-07T17:39:47.176Z,33.73
2017-11-07T17:42:14.835Z,19.13
2017-11-07T17:44:42.564Z,40.97
2017-11-07T17:47:10.223Z,11.47
2017-11-07T17:49:37.896Z,13.80
2017-11-07T17:52:05.549Z,29.13
2017-11-07T17:54:33.234Z,18.60
2017-11-07T17:57:00.901Z,28.43
2017-11-07T17:59:28.596Z,16.63
2017-11-07T18:01:56.266Z,13.27
2017-11-07T18:04:23.950Z,14.13
2017-11-07T18:06:51.621Z,10.30
2017-11-07T18:09:19.321Z,14.77
2017-11-07T18:11:46.973Z,24.97
2017-11-07T18:14:14.696Z,11.37
2017-11-07T18:16:42.380Z,17.77
2017-11-07T18:19:10.039Z,10.63
2017-11-07T18:21:37.726Z,6.70
2017-11-07T18:24:05.362Z,8.50
2017-11-07T18:26:33.050Z,7.57
2017-11-07T18:29:00.694Z,8.10
2017-11-07T18:31:28.380Z,9.20
2017-11-07T18:33:56.054Z,9.43
2017-11-07T18:36:23.770Z,8.80
2017-11-07T18:38:51.479Z,14.17
2017-11-07T18:41:19.196Z,10.77
2017-11-07T18:43:46.862Z,8.70
2017-11-07T18:46:14.561Z,8.43
2017-11-07T18:48:42.201Z,9.43
2017-11-07T18:51:09.911Z,11.37
2017-11-07T18:53:37.577Z,11.37
2017-11-07T18:56:05.250Z,13.57
2017-11-07T18:58:32.946Z,13.47
2017-11-07T19:01:00.615Z,11.07
2017-11-07T19:03:28.306Z,15.63
2017-11-07T19:05:55.967Z,15.27
2017-11-07T19:08:23.667Z,14.50
2017-11-07T19:10:51.318Z,14.13
2017-11-07T19:13:18.984Z,11.80
2017-11-07T19:15:46.630Z,13.30
2017-11-07T19:18:14.341Z,21.53
2017-11-07T19:20:42.026Z,13.00
2017-11-07T19:23:09.723Z,11.87
2017-11-07T19:25:37.374Z,16.67
2017-11-07T19:28:05.073Z,12.70
2017-11-07T19:30:32.756Z,11.70
2017-11-07T19:33:00.408Z,15.07
2017-11-07T19:35:28.106Z,15.40
2017-11-07T19:37:55.830Z,12.40
2017-11-07T19:40:23.531Z,14.00
2017-11-07T19:42:51.183Z,15.20
2017-11-07T19:45:18.866Z,11.37
2017-11-07T19:47:46.536Z,12.00
2017-11-07T19:50:15.249Z,12.27
2017-11-07T19:52:42.906Z,17.27
2017-11-07T19:55:10.562Z,17.10
2017-11-07T19:57:38.223Z,13.37
2017-11-07T20:00:05.921Z,15.83
2017-11-07T20:02:33.569Z,17.87
2017-11-07T20:05:01.271Z,19.53
2017-11-07T20:07:28.852Z,17.00
2017-11-07T20:09:56.561Z,12.80
2017-11-07T20:12:24.191Z,11.47
2017-11-07T20:14:51.909Z,14.03
2017-11-07T20:17:19.592Z,16.77
2017-11-07T20:19:47.303Z,15.03
2017-11-07T20:22:14.969Z,12.70
2017-11-07T20:24:42.611Z,18.50
2017-11-07T20:27:10.305Z,15.67
2017-11-07T20:29:37.962Z,13.70
2017-11-07T20:32:05.669Z,12.50
2017-11-07T20:34:33.315Z,23.77
2017-11-07T20:37:01.021Z,13.20
2017-11-07T20:39:28.703Z,14.80
2017-11-07T20:41:56.400Z,18.90
2017-11-07T20:44:24.067Z,17.90
2017-11-07T20:46:51.743Z,18.87
2017-11-07T20:49:19.397Z,15.00
2017-11-07T20:51:47.105Z,15.17
2017-11-07T20:54:14.750Z,16.17
2017-11-07T20:56:42.453Z,20.50
2017-11-07T20:59:10.099Z,24.17
2017-11-07T21:01:37.829Z,18.37
2017-11-07T21:04:05.491Z,15.37
2017-11-07T21:06:33.142Z,19.07
2017-11-07T21:09:00.835Z,15.13
2017-11-07T21:11:28.498Z,17.00
2017-11-07T21:13:56.194Z,17.70
2017-11-07T21:16:23.858Z,11.40
2017-11-07T21:18:52.610Z,14.20
2017-11-07T21:21:20.493Z,16.27
2017-11-07T21:23:48.205Z,17.40
2017-11-07T21:26:15.867Z,19.70
2017-11-07T21:28:43.539Z,26.27
2017-11-07T21:31:11.218Z,21.80
2017-11-07T21:33:38.859Z,14.07
2017-11-07T21:36:06.516Z,12.03
2017-11-07T21:38:34.175Z,19.60
2017-11-07T21:41:01.786Z,18.93
2017-11-07T21:43:29.520Z,18.43
2017-11-07T21:45:57.226Z,16.17
2017-11-07T21:48:24.811Z,16.80
2017-11-07T21:50:52.497Z,16.57
2017-11-07T21:53:20.171Z,18.10
2017-11-07T21:55:47.875Z,19.43
2017-11-07T21:58:15.546Z,19.73
2017-11-07T22:00:44.347Z,25.23
2017-11-07T22:03:12.000Z,22.13
2017-11-07T22:05:39.613Z,17.77
2017-11-07T22:08:07.250Z,19.17
2017-11-07T22:10:35.410Z,11.90
2017-11-07T22:13:03.295Z,14.03
2017-11-07T22:18:15.551Z,17.47
2017-11-07T22:20:43.613Z,15.93
2017-11-07T22:23:17.030Z,19.27
2017-11-07T22:25:44.771Z,16.30
2017-11-07T22:28:12.451Z,17.67
2017-11-07T22:30:40.211Z,14.93
2017-11-07T22:33:07.978Z,12.40
2017-11-07T22:35:35.604Z,19.83
2017-11-07T22:38:03.231Z,17.20
2017-11-07T22:40:30.866Z,17.37
2017-11-07T22:42:58.495Z,12.20
2017-11-07T22:45:28.869Z,13.23
2017-11-07T22:47:56.773Z,21.50
2017-11-07T22:50:24.358Z,21.77
2017-11-07T22:52:52.057Z,13.10
2017-11-07T22:55:19.938Z,10.30
2017-11-07T22:57:47.551Z,16.63
2017-11-07T23:00:15.205Z,15.73
2017-11-07T23:02:42.902Z,16.57
2017-11-07T23:05:10.508Z,11.70
2017-11-07T23:07:38.145Z,14.37
2017-11-07T23:10:05.740Z,19.67
2017-11-07T23:12:33.383Z,11.20
2017-11-07T23:15:01.095Z,13.50
2017-11-07T23:17:28.763Z,10.07
2017-11-07T23:19:56.383Z,9.80
2017-11-07T23:22:24.116Z,12.97
2017-11-07T23:24:51.829Z,11.60
2017-11-07T23:27:19.469Z,12.70
2017-11-07T23:29:47.158Z,15.03
2017-11-07T23:32:14.817Z,12.93
2017-11-07T23:34:42.460Z,13.60
2017-11-07T23:37:10.053Z,16.77
2017-11-07T23:39:37.688Z,15.07
2017-11-07T23:42:05.315Z,13.47
2017-11-07T23:44:32.957Z,11.93
2017-11-07T23:47:00.611Z,11.67
2017-11-07T23:49:28.209Z,13.57
2017-11-07T23:51:55.835Z,13.30
2017-11-07T23:54:23.486Z,11.13
2017-11-07T23:56:51.206Z,16.93
2017-11-07T23:59:19.785Z,15.20
